Maxwell Paul Moran — WDJ2221 — position and weather

sailwx.info

Track history (hours):
 
Tides and Currents Weather Stations Pressure Air Temp Water Temp Dewpoint Dewpoint Depression Visibility Wind Speed Wind Dir Waves Ship Positions

Maxwell Paul Moran

Owner: MORAN TOWING CORPORATION, New Canaan, CT. More information available from US FCC via Universal Licensing System and Coast Guard Vessel Documentation Center.

Last reported at 2018-Jun-24 13:00 UTC. Time now 2018-Jun-24 12:59 UTC.
Position N 36°50' W 076°16'.

Length 28 m; draft 5.2 m.

Type: Tug. MMSI: 367756350.

Date/timePositionNaut miles runAvg speedWind from/ knotsBaromVisibWave heightAir tempDewpointWater temp
2018-Jun-24 13:00N 36°50' W 076°16'0 0.0
2018-Jun-24 12:30N 36°50' W 076°16'1 1.4
2018-Jun-24 11:59N 36°51' W 076°17'3 6.6
2018-Jun-24 11:30N 36°53' W 076°20'0 0.2
2018-Jun-24 10:37N 36°53' W 076°20'1 5.0
2018-Jun-24 10:27N 36°54' W 076°20'1 0.9
2018-Jun-24 09:18N 36°53' W 076°20'2 7.4
2018-Jun-24 09:00N 36°55' W 076°20'1 0.1
2018-Jun-24 03:24N 36°56' W 076°20'0 1.1
2018-Jun-24 02:57N 36°55' W 076°20'3 0.7
2018-Jun-23 23:13N 36°53' W 076°20'1 7.2
2018-Jun-23 23:00N 36°52' W 076°19'1 2.1
2018-Jun-23 22:27N 36°53' W 076°20'3 7.5
2018-Jun-23 22:00N 36°50' W 076°17'0 0.6
2018-Jun-23 21:30N 36°50' W 076°16'0 0.0
2018-Jun-23 21:00N 36°50' W 076°16'0 0.0
2018-Jun-23 20:30N 36°50' W 076°16'0 0.0
2018-Jun-23 20:00N 36°50' W 076°16'0 0.0
2018-Jun-23 19:30N 36°50' W 076°16'0 0.0
2018-Jun-23 19:00N 36°50' W 076°16'0 0.0
2018-Jun-23 18:30N 36°50' W 076°16'0 0.0
2018-Jun-23 17:57N 36°50' W 076°16'0 0.0
2018-Jun-23 17:30N 36°50' W 076°16'0 0.0
2018-Jun-23 16:58N 36°50' W 076°16'1 2.4
2018-Jun-23 16:30N 36°51' W 076°18'5 1.3
2018-Jun-23 12:37N 36°55' W 076°20'0 0.0
2018-Jun-23 12:22N 36°55' W 076°20'2 4.2
2018-Jun-23 11:55N 36°54' W 076°20'1 3.4
2018-Jun-23 11:30N 36°52' W 076°21'0 0.2
2018-Jun-23 11:00N 36°52' W 076°21'1 1.4
2018-Jun-23 10:27N 36°53' W 076°20'1 2.6
2018-Jun-23 09:53N 36°51' W 076°19'2 3.5
2018-Jun-23 09:27N 36°53' W 076°20'0 0.2
2018-Jun-23 08:14N 36°53' W 076°20'1 6.3
2018-Jun-23 08:00N 36°52' W 076°19'2 4.7
2018-Jun-23 07:30N 36°50' W 076°16'0 0.0
2018-Jun-23 07:00N 36°50' W 076°16'0 0.0
2018-Jun-23 06:30N 36°50' W 076°16'0 0.0
2018-Jun-23 06:00N 36°50' W 076°16'0 0.0
2018-Jun-23 05:30N 36°50' W 076°16'0 0.0
2018-Jun-23 05:00N 36°50' W 076°16'0 0.0
2018-Jun-23 04:29N 36°50' W 076°16'0 0.0
2018-Jun-23 04:00N 36°50' W 076°16'0 0.0
2018-Jun-23 03:30N 36°50' W 076°16'0 0.0
2018-Jun-23 03:00N 36°50' W 076°16'0 0.0
2018-Jun-23 02:30N 36°50' W 076°16'0 0.0
2018-Jun-23 02:00N 36°50' W 076°16'0 0.0
2018-Jun-23 01:30N 36°50' W 076°16'0 0.0
2018-Jun-23 00:53N 36°50' W 076°16'0 0.0
2018-Jun-23 00:30N 36°50' W 076°16'0 0.0
2018-Jun-23 00:00N 36°50' W 076°16'0 0.0
2018-Jun-22 23:30N 36°50' W 076°16'0 0.0
2018-Jun-22 23:00N 36°50' W 076°16'0 0.0
2018-Jun-22 22:30N 36°50' W 076°16'0 0.0
2018-Jun-22 22:00N 36°50' W 076°16'0 0.0
2018-Jun-22 21:30N 36°50' W 076°16'0 0.0
2018-Jun-22 21:00N 36°50' W 076°16'0 0.0
2018-Jun-22 20:30N 36°50' W 076°16'0 0.0
2018-Jun-22 19:58N 36°50' W 076°16'0 0.0
2018-Jun-22 19:30N 36°50' W 076°16'0 0.0
2018-Jun-22 19:00N 36°50' W 076°16'0 0.0
2018-Jun-22 18:29N 36°50' W 076°16'0 0.0
2018-Jun-22 18:00N 36°50' W 076°16'0 0.0
2018-Jun-22 17:30N 36°50' W 076°16'0 0.0
2018-Jun-22 17:00N 36°50' W 076°16'0 0.0
2018-Jun-22 16:30N 36°50' W 076°16'0 0.0
2018-Jun-22 15:47N 36°50' W 076°16'0 0.0
2018-Jun-22 15:30N 36°50' W 076°16'0 0.0
2018-Jun-22 14:54N 36°50' W 076°16'0 0.0
2018-Jun-22 14:30N 36°50' W 076°16'0 0.0
2018-Jun-22 14:00N 36°50' W 076°16'0 0.0
2018-Jun-22 13:30N 36°50' W 076°16'0 0.0
2018-Jun-22 13:00N 36°50' W 076°16'0 0.0
2018-Jun-22 12:30N 36°50' W 076°16'0 0.0
2018-Jun-22 12:00N 36°50' W 076°16'0 0.0
2018-Jun-22 11:30N 36°50' W 076°16'0 0.0
2018-Jun-22 11:00N 36°50' W 076°16'0 0.0
2018-Jun-22 10:30N 36°50' W 076°16'0 0.0
2018-Jun-22 10:00N 36°50' W 076°16'0 0.0
2018-Jun-22 09:30N 36°50' W 076°16'0 0.0
2018-Jun-22 09:00N 36°50' W 076°16'0 0.0
2018-Jun-22 08:28N 36°50' W 076°16'0 0.0
2018-Jun-22 08:00N 36°50' W 076°16'0 0.0
2018-Jun-22 07:30N 36°50' W 076°16'0 0.0
2018-Jun-22 07:00N 36°50' W 076°16'0 0.0
2018-Jun-22 06:30N 36°50' W 076°16'0 0.3
2018-Jun-22 06:00N 36°50' W 076°16'0 0.1
2018-Jun-22 05:30N 36°50' W 076°17'3 5.8
2018-Jun-22 04:58N 36°52' W 076°20'1 0.7
2018-Jun-22 04:01N 36°53' W 076°20'0 0.9
2018-Jun-22 04:00N 36°53' W 076°20'0 0.2
2018-Jun-22 03:31N 36°53' W 076°20'0 0.2
2018-Jun-22 02:52N 36°53' W 076°20'0 0.2
2018-Jun-22 02:14N 36°53' W 076°20'0 0.5
2018-Jun-22 01:55N 36°53' W 076°20'3 6.1
2018-Jun-22 01:28N 36°56' W 076°20'0 0.5
2018-Jun-22 00:55N 36°56' W 076°20'3 0.6
2018-Jun-21 20:01N 36°53' W 076°20'0 8.0
2018-Jun-21 20:00N 36°53' W 076°20'4 7.4
2018-Jun-21 19:30N 36°50' W 076°16'0 0.3
2018-Jun-21 19:00N 36°50' W 076°16'0 0.0
2018-Jun-21 18:30N 36°50' W 076°16'0 0.0
2018-Jun-21 18:00N 36°50' W 076°16'0 0.0
2018-Jun-21 17:30N 36°50' W 076°16'0 0.0
2018-Jun-21 17:00N 36°50' W 076°16'0 0.0
2018-Jun-21 16:30N 36°50' W 076°16'0 0.0
2018-Jun-21 16:00N 36°50' W 076°16'0 0.0
2018-Jun-21 15:30N 36°50' W 076°16'0 0.0
2018-Jun-21 15:00N 36°50' W 076°16'0 0.0
2018-Jun-21 14:30N 36°50' W 076°16'0 0.4
2018-Jun-21 13:55N 36°50' W 076°17'3 7.0
2018-Jun-21 13:28N 36°52' W 076°20'1 0.7
2018-Jun-21 12:46N 36°53' W 076°20'1 1.6
2018-Jun-21 12:26N 36°53' W 076°20'0 0.3
2018-Jun-21 11:54N 36°53' W 076°20'1 1.4
2018-Jun-21 11:30N 36°53' W 076°20'0 0.0
2018-Jun-21 11:00N 36°53' W 076°20'0 0.0
2018-Jun-21 10:30N 36°53' W 076°20'1 1.8
2018-Jun-21 10:00N 36°53' W 076°21'1 0.9
2018-Jun-21 09:04N 36°53' W 076°20'2 5.3
2018-Jun-21 08:43N 36°55' W 076°20'1 0.1
2018-Jun-21 01:20N 36°56' W 076°20'0 0.3
2018-Jun-21 01:00N 36°55' W 076°20'1 0.2
2018-Jun-20 21:38N 36°55' W 076°20'0 0.3
2018-Jun-20 21:29N 36°55' W 076°20'0 0.8
2018-Jun-20 20:59N 36°55' W 076°20'1 1.3
2018-Jun-20 20:19N 36°56' W 076°20'0 0.1
2018-Jun-20 16:18N 36°56' W 076°20'0 0.0
2018-Jun-20 16:00N 36°56' W 076°20'3 2.8
2018-Jun-20 15:01N 36°53' W 076°20'0 5.2
2018-Jun-20 15:01N 36°53' W 076°20'0 0.0
2018-Jun-20 14:30N 36°53' W 076°20'0 0.0
2018-Jun-20 14:00N 36°53' W 076°20'0 0.0
2018-Jun-20 13:30N 36°53' W 076°20'0 0.0
2018-Jun-20 13:00N 36°53' W 076°20'0 0.0
2018-Jun-20 12:30N 36°53' W 076°20'0 0.0
2018-Jun-20 11:59N 36°53' W 076°20'0 0.0
2018-Jun-20 11:29N 36°53' W 076°20'4 4.8
2018-Jun-20 10:34N 36°57' W 076°20'3 9.2
2018-Jun-20 10:14N 36°54' W 076°20'2 5.4
2018-Jun-20 09:55N 36°52' W 076°21'0 0.1
2018-Jun-20 09:10N 36°53' W 076°21'1 4.9
2018-Jun-20 09:01N 36°53' W 076°20'2 2.4
2018-Jun-20 08:23N 36°51' W 076°19'0 0.0
2018-Jun-20 07:49N 36°51' W 076°19'0 0.0
2018-Jun-20 07:26N 36°51' W 076°19'0 0.0
2018-Jun-20 07:00N 36°51' W 076°19'0 0.0
2018-Jun-20 06:24N 36°51' W 076°19'0 0.0
2018-Jun-20 06:00N 36°51' W 076°19'0 0.0
2018-Jun-20 05:21N 36°51' W 076°19'0 0.0
2018-Jun-20 04:53N 36°51' W 076°19'0 0.0
2018-Jun-20 03:51N 36°51' W 076°19'0 0.0
2018-Jun-20 03:26N 36°51' W 076°19'0 0.0
2018-Jun-20 02:54N 36°51' W 076°19'0 0.0
2018-Jun-20 02:28N 36°51' W 076°19'0 0.0
2018-Jun-20 01:52N 36°51' W 076°19'0 0.0
2018-Jun-20 01:28N 36°51' W 076°19'0 0.0
2018-Jun-20 01:00N 36°51' W 076°19'0 0.0
2018-Jun-20 00:29N 36°51' W 076°19'0 0.0
2018-Jun-20 00:00N 36°51' W 076°19'0 0.0
2018-Jun-19 23:30N 36°51' W 076°19'0 0.0
2018-Jun-19 23:00N 36°51' W 076°19'0 0.0
2018-Jun-19 22:29N 36°51' W 076°19'0 0.0
2018-Jun-19 22:00N 36°51' W 076°19'0 0.0
2018-Jun-19 21:29N 36°51' W 076°19'0 0.0
2018-Jun-19 21:00N 36°51' W 076°19'0 0.0
2018-Jun-19 20:30N 36°51' W 076°19'1 0.9
2018-Jun-19 19:48N 36°51' W 076°20'0 0.0
2018-Jun-19 19:24N 36°51' W 076°20'1 3.4
2018-Jun-19 19:00N 36°53' W 076°20'0 0.0
2018-Jun-19 18:21N 36°53' W 076°20'0 0.0
2018-Jun-19 18:00N 36°53' W 076°20'0 0.0
2018-Jun-19 17:28N 36°53' W 076°20'0 0.1
2018-Jun-19 15:57N 36°53' W 076°20'0 0.1
2018-Jun-19 15:07N 36°53' W 076°20'0 0.0
2018-Jun-19 14:54N 36°53' W 076°20'0 0.2
2018-Jun-19 14:26N 36°53' W 076°20'0 0.0
2018-Jun-19 13:41N 36°53' W 076°20'0 0.3
2018-Jun-19 13:23N 36°53' W 076°20'0 0.0
2018-Jun-19 13:00N 36°53' W 076°20'0 0.0
2018-Jun-19 12:30N 36°53' W 076°20'0 0.0
2018-Jun-19 12:00N 36°53' W 076°20'0 0.0
2018-Jun-19 11:30N 36°53' W 076°20'3 4.0
2018-Jun-19 10:46N 36°56' W 076°20'0 1.4
2018-Jun-19 10:28N 36°55' W 076°20'0 0.1
2018-Jun-19 09:57N 36°55' W 076°20'2 3.3
2018-Jun-19 09:16N 36°53' W 076°20'0 0.1
2018-Jun-19 06:24N 36°53' W 076°20'0 0.0
2018-Jun-19 05:59N 36°53' W 076°20'0 0.0
2018-Jun-19 05:05N 36°53' W 076°20'0 0.0
2018-Jun-19 05:00N 36°53' W 076°20'0 0.0
2018-Jun-19 00:30N 36°53' W 076°20'0 0.0
2018-Jun-18 23:17N 36°53' W 076°20'0 0.0
2018-Jun-18 23:00N 36°53' W 076°20'1 1.4
2018-Jun-18 22:05N 36°51' W 076°20'0 2.1
2018-Jun-18 21:57N 36°52' W 076°19'2 1.7
2018-Jun-18 20:59N 36°53' W 076°21'0 0.5
2018-Jun-18 20:26N 36°53' W 076°21'1 0.4
2018-Jun-18 18:30N 36°53' W 076°20'0 0.1
2018-Jun-18 17:46N 36°53' W 076°20'2 6.6
2018-Jun-18 17:30N 36°51' W 076°19'2 4.1
2018-Jun-18 17:00N 36°50' W 076°16'0 0.0
2018-Jun-18 16:30N 36°50' W 076°16'0 0.0
2018-Jun-18 16:00N 36°50' W 076°16'0 0.0
2018-Jun-18 15:30N 36°50' W 076°16'0 0.0
2018-Jun-18 15:00N 36°50' W 076°16'0 0.2
2018-Jun-18 14:30N 36°50' W 076°16'3 0.8
2018-Jun-18 11:00N 36°52' W 076°19'0 0.4
2018-Jun-18 10:29N 36°51' W 076°19'2 2.9
2018-Jun-18 09:58N 36°52' W 076°21'1 1.1
2018-Jun-18 09:29N 36°53' W 076°20'1 0.2
2018-Jun-18 06:59N 36°53' W 076°20'0 0.6
2018-Jun-18 06:18N 36°53' W 076°20'0 0.0
2018-Jun-18 06:00N 36°53' W 076°20'0 0.0
2018-Jun-18 05:29N 36°53' W 076°20'0 0.0
2018-Jun-18 05:00N 36°53' W 076°20'0 0.2
2018-Jun-18 04:30N 36°53' W 076°20'0 0.0
2018-Jun-18 03:55N 36°53' W 076°20'0 0.3
2018-Jun-18 03:23N 36°53' W 076°20'0 0.5
2018-Jun-18 03:00N 36°53' W 076°20'0 0.1
2018-Jun-18 02:30N 36°53' W 076°20'0 0.0
2018-Jun-18 02:00N 36°53' W 076°20'3 6.8
2018-Jun-18 01:30N 36°50' W 076°17'0 0.3
2018-Jun-18 00:42N 36°50' W 076°16'0 0.0
2018-Jun-17 23:34N 36°50' W 076°16'0 0.0
2018-Jun-17 23:13N 36°50' W 076°16'0 0.0
2018-Jun-17 21:48N 36°50' W 076°16'1 4.9
2018-Jun-17 21:30N 36°49' W 076°17'3 5.4
2018-Jun-17 21:00N 36°47' W 076°18'1 1.2
2018-Jun-17 20:30N 36°47' W 076°18'4 7.1
2018-Jun-17 20:00N 36°50' W 076°16'0 0.3
2018-Jun-17 19:30N 36°50' W 076°16'0 0.0
2018-Jun-17 19:00N 36°50' W 076°16'0 0.0
2018-Jun-17 18:30N 36°50' W 076°16'0 0.0
2018-Jun-17 18:00N 36°50' W 076°16'0 0.0
2018-Jun-17 17:30N 36°50' W 076°16'0 0.0
2018-Jun-17 16:56N 36°50' W 076°16'0 0.0
2018-Jun-17 16:29N 36°50' W 076°16'0 0.0
2018-Jun-17 15:57N 36°50' W 076°16'0 0.0
2018-Jun-17 15:30N 36°50' W 076°16'0 0.0
2018-Jun-17 15:00N 36°50' W 076°16'0 0.0
2018-Jun-17 14:30N 36°50' W 076°16'0 0.0
2018-Jun-17 14:00N 36°50' W 076°16'0 0.0
2018-Jun-17 13:30N 36°50' W 076°16'0 0.0
2018-Jun-17 13:00N 36°50' W 076°16'0 0.0
2018-Jun-17 12:30N 36°50' W 076°16'0 0.0
2018-Jun-17 12:00N 36°50' W 076°16'0 0.0
2018-Jun-17 11:30N 36°50' W 076°16'0 0.0
2018-Jun-17 11:00N 36°50' W 076°16'0 0.0
2018-Jun-17 10:30N 36°50' W 076°16'0 0.0
2018-Jun-17 10:00N 36°50' W 076°16'5 7.5
2018-Jun-17 09:17N 36°55' W 076°20'0 0.1
2018-Jun-17 01:54N 36°55' W 076°20'1 0.7
2018-Jun-17 00:47N 36°56' W 076°20'3 2.0
2018-Jun-16 23:26N 36°53' W 076°20'0 0.3
2018-Jun-16 22:42N 36°53' W 076°20'0 0.9
2018-Jun-16 22:29N 36°53' W 076°20'0 0.1
2018-Jun-16 21:43N 36°53' W 076°20'0 0.6
2018-Jun-16 21:30N 36°53' W 076°20'0 0.0
2018-Jun-16 21:00N 36°53' W 076°20'0 0.0
2018-Jun-16 20:13N 36°53' W 076°20'0 0.0
2018-Jun-16 19:59N 36°53' W 076°20'0 0.0
2018-Jun-16 19:27N 36°53' W 076°20'0 0.1
2018-Jun-16 18:26N 36°53' W 076°20'2 5.2
2018-Jun-16 17:59N 36°51' W 076°18'1 2.9
2018-Jun-16 17:28N 36°50' W 076°16'0 0.0
2018-Jun-16 16:59N 36°50' W 076°16'0 0.0
2018-Jun-16 16:30N 36°50' W 076°16'0 0.0
2018-Jun-16 16:00N 36°50' W 076°16'0 0.0
2018-Jun-16 15:30N 36°50' W 076°16'0 0.0
2018-Jun-16 15:00N 36°50' W 076°16'0 0.0
2018-Jun-16 14:30N 36°50' W 076°16'0 0.0
2018-Jun-16 14:00N 36°50' W 076°16'0 0.0
2018-Jun-16 13:30N 36°50' W 076°16'0 0.0
2018-Jun-16 13:00N 36°50' W 076°16'0 0.0
2018-Jun-16 12:30N 36°50' W 076°16'0 0.5
2018-Jun-16 12:00N 36°50' W 076°17'3 5.8
2018-Jun-16 11:27N 36°52' W 076°20'5 8.8
2018-Jun-16 10:55N 36°57' W 076°20'1 0.6
2018-Jun-16 08:45N 36°58' W 076°22'4 8.6
2018-Jun-16 08:18N 36°54' W 076°20'2 1.9
2018-Jun-16 07:01N 36°51' W 076°19'0 0.0
2018-Jun-16 06:53N 36°51' W 076°19'0 0.0
2018-Jun-16 06:30N 36°51' W 076°19'0 0.0
2018-Jun-16 05:59N 36°51' W 076°19'0 0.0
2018-Jun-16 05:30N 36°51' W 076°19'0 0.0
2018-Jun-16 05:00N 36°51' W 076°19'0 0.0
2018-Jun-16 04:29N 36°51' W 076°19'0 0.0
2018-Jun-16 03:56N 36°51' W 076°19'0 0.0
2018-Jun-16 02:58N 36°51' W 076°19'1 1.9
2018-Jun-16 02:30N 36°51' W 076°18'3 5.4
2018-Jun-16 02:00N 36°48' W 076°17'2 3.5
2018-Jun-16 01:30N 36°47' W 076°18'0 0.8
2018-Jun-16 01:00N 36°47' W 076°18'1 2.5
2018-Jun-16 00:30N 36°48' W 076°18'2 4.6
2018-Jun-16 00:00N 36°50' W 076°18'3 5.9
2018-Jun-15 23:28N 36°53' W 076°20'0 0.0
2018-Jun-15 23:00N 36°53' W 076°20'0 0.0
2018-Jun-15 22:30N 36°53' W 076°20'0 0.0
2018-Jun-15 22:00N 36°53' W 076°20'0 0.0
2018-Jun-15 21:09N 36°53' W 076°20'0 0.0
2018-Jun-15 20:00N 36°53' W 076°20'0 0.1
2018-Jun-15 19:31N 36°53' W 076°20'0 0.3
2018-Jun-15 17:59N 36°53' W 076°20'1 0.8
2018-Jun-15 17:11N 36°53' W 076°20'1 2.6
2018-Jun-15 16:59N 36°52' W 076°21'0 0.1
2018-Jun-15 15:33N 36°52' W 076°21'0 7.3
2018-Jun-15 15:30N 36°53' W 076°21'1 1.2
2018-Jun-15 14:28N 36°52' W 076°19'1 1.9
2018-Jun-15 13:54N 36°53' W 076°20'0 0.1
2018-Jun-15 13:14N 36°53' W 076°20'0 0.0
2018-Jun-15 13:00N 36°53' W 076°20'0 0.0
2018-Jun-15 12:28N 36°53' W 076°20'0 0.0
2018-Jun-15 11:55N 36°53' W 076°20'0 0.0
2018-Jun-15 11:29N 36°53' W 076°20'0 0.0
2018-Jun-15 10:59N 36°53' W 076°20'0 0.0
2018-Jun-15 10:26N 36°53' W 076°20'0 0.0
2018-Jun-15 10:00N 36°53' W 076°20'0 0.0
2018-Jun-15 08:29N 36°53' W 076°20'0 0.0
2018-Jun-15 07:49N 36°53' W 076°20'0 0.0
2018-Jun-15 07:30N 36°53' W 076°20'0 0.0
2018-Jun-15 06:59N 36°53' W 076°20'0 0.0
2018-Jun-15 06:31N 36°53' W 076°20'0 0.3
2018-Jun-15 06:00N 36°53' W 076°20'0 0.3
2018-Jun-15 05:21N 36°53' W 076°20'0 0.7
2018-Jun-15 05:00N 36°53' W 076°20'0 0.2
2018-Jun-15 03:47N 36°53' W 076°20'0 0.3
2018-Jun-15 03:29N 36°53' W 076°20'0 0.3
2018-Jun-15 03:00N 36°53' W 076°20'3 1.9
2018-Jun-15 01:26N 36°56' W 076°20'1 0.9
2018-Jun-15 00:18N 36°55' W 076°20'0 0.4
2018-Jun-14 23:35N 36°55' W 076°20'2 6.1
2018-Jun-14 23:14N 36°53' W 076°20'2 7.3
2018-Jun-14 23:00N 36°51' W 076°19'2 4.0
2018-Jun-14 22:27N 36°50' W 076°16'0 0.0
2018-Jun-14 22:00N 36°50' W 076°16'0 0.0
2018-Jun-14 21:30N 36°50' W 076°16'0 0.0
2018-Jun-14 21:00N 36°50' W 076°16'0 0.0
2018-Jun-14 20:30N 36°50' W 076°16'0 0.0
2018-Jun-14 20:00N 36°50' W 076°16'0 0.0
2018-Jun-14 19:30N 36°50' W 076°16'0 0.0
2018-Jun-14 19:00N 36°50' W 076°16'0 0.0
2018-Jun-14 18:30N 36°50' W 076°16'0 0.0
2018-Jun-14 18:00N 36°50' W 076°16'0 0.0
2018-Jun-14 17:30N 36°50' W 076°16'0 0.0
2018-Jun-14 17:00N 36°50' W 076°16'0 0.0
2018-Jun-14 16:30N 36°50' W 076°16'0 0.0
2018-Jun-14 16:00N 36°50' W 076°16'0 0.0
2018-Jun-14 15:30N 36°50' W 076°16'3 6.5
2018-Jun-14 14:59N 36°52' W 076°20'1 1.1
2018-Jun-14 14:29N 36°53' W 076°20'0 0.1
2018-Jun-14 13:58N 36°53' W 076°20'2 3.7
2018-Jun-14 13:30N 36°51' W 076°19'2 4.1
2018-Jun-14 13:00N 36°50' W 076°16'  
Track history (hours):
 
Tides and Currents Weather Stations Pressure Air Temp Water Temp Dewpoint Dewpoint Depression Visibility Wind Speed Wind Dir Waves Ship Positions

Maxwell Paul Moran

Owner: MORAN TOWING CORPORATION, New Canaan, CT. More information available from US FCC via Universal Licensing System and Coast Guard Vessel Documentation Center.

Last reported at 2018-Jun-24 13:00 UTC. Time now 2018-Jun-24 12:59 UTC.
Position N 36°50' W 076°16'.

Length 28 m; draft 5.2 m.

Type: Tug. MMSI: 367756350.

Date/timePositionNaut miles runAvg speedWind from/ knotsBaromVisibWave heightAir tempDewpointWater temp
2018-Jun-24 13:00N 36°50' W 076°16'0 0.0
2018-Jun-24 12:30N 36°50' W 076°16'1 1.4
2018-Jun-24 11:59N 36°51' W 076°17'3 6.6
2018-Jun-24 11:30N 36°53' W 076°20'0 0.2
2018-Jun-24 10:37N 36°53' W 076°20'1 5.0
2018-Jun-24 10:27N 36°54' W 076°20'1 0.9
2018-Jun-24 09:18N 36°53' W 076°20'2 7.4
2018-Jun-24 09:00N 36°55' W 076°20'1 0.1
2018-Jun-24 03:24N 36°56' W 076°20'0 1.1
2018-Jun-24 02:57N 36°55' W 076°20'3 0.7
2018-Jun-23 23:13N 36°53' W 076°20'1 7.2
2018-Jun-23 23:00N 36°52' W 076°19'1 2.1
2018-Jun-23 22:27N 36°53' W 076°20'3 7.5
2018-Jun-23 22:00N 36°50' W 076°17'0 0.6
2018-Jun-23 21:30N 36°50' W 076°16'0 0.0
2018-Jun-23 21:00N 36°50' W 076°16'0 0.0
2018-Jun-23 20:30N 36°50' W 076°16'0 0.0
2018-Jun-23 20:00N 36°50' W 076°16'0 0.0
2018-Jun-23 19:30N 36°50' W 076°16'0 0.0
2018-Jun-23 19:00N 36°50' W 076°16'0 0.0
2018-Jun-23 18:30N 36°50' W 076°16'0 0.0
2018-Jun-23 17:57N 36°50' W 076°16'0 0.0
2018-Jun-23 17:30N 36°50' W 076°16'0 0.0
2018-Jun-23 16:58N 36°50' W 076°16'1 2.4
2018-Jun-23 16:30N 36°51' W 076°18'5 1.3
2018-Jun-23 12:37N 36°55' W 076°20'0 0.0
2018-Jun-23 12:22N 36°55' W 076°20'2 4.2
2018-Jun-23 11:55N 36°54' W 076°20'1 3.4
2018-Jun-23 11:30N 36°52' W 076°21'0 0.2
2018-Jun-23 11:00N 36°52' W 076°21'1 1.4
2018-Jun-23 10:27N 36°53' W 076°20'1 2.6
2018-Jun-23 09:53N 36°51' W 076°19'2 3.5
2018-Jun-23 09:27N 36°53' W 076°20'0 0.2
2018-Jun-23 08:14N 36°53' W 076°20'1 6.3
2018-Jun-23 08:00N 36°52' W 076°19'2 4.7
2018-Jun-23 07:30N 36°50' W 076°16'0 0.0
2018-Jun-23 07:00N 36°50' W 076°16'0 0.0
2018-Jun-23 06:30N 36°50' W 076°16'0 0.0
2018-Jun-23 06:00N 36°50' W 076°16'0 0.0
2018-Jun-23 05:30N 36°50' W 076°16'0 0.0
2018-Jun-23 05:00N 36°50' W 076°16'0 0.0
2018-Jun-23 04:29N 36°50' W 076°16'0 0.0
2018-Jun-23 04:00N 36°50' W 076°16'0 0.0
2018-Jun-23 03:30N 36°50' W 076°16'0 0.0
2018-Jun-23 03:00N 36°50' W 076°16'0 0.0
2018-Jun-23 02:30N 36°50' W 076°16'0 0.0
2018-Jun-23 02:00N 36°50' W 076°16'0 0.0
2018-Jun-23 01:30N 36°50' W 076°16'0 0.0
2018-Jun-23 00:53N 36°50' W 076°16'0 0.0
2018-Jun-23 00:30N 36°50' W 076°16'0 0.0
2018-Jun-23 00:00N 36°50' W 076°16'0 0.0
2018-Jun-22 23:30N 36°50' W 076°16'0 0.0
2018-Jun-22 23:00N 36°50' W 076°16'0 0.0
2018-Jun-22 22:30N 36°50' W 076°16'0 0.0
2018-Jun-22 22:00N 36°50' W 076°16'0 0.0
2018-Jun-22 21:30N 36°50' W 076°16'0 0.0
2018-Jun-22 21:00N 36°50' W 076°16'0 0.0
2018-Jun-22 20:30N 36°50' W 076°16'0 0.0
2018-Jun-22 19:58N 36°50' W 076°16'0 0.0
2018-Jun-22 19:30N 36°50' W 076°16'0 0.0
2018-Jun-22 19:00N 36°50' W 076°16'0 0.0
2018-Jun-22 18:29N 36°50' W 076°16'0 0.0
2018-Jun-22 18:00N 36°50' W 076°16'0 0.0
2018-Jun-22 17:30N 36°50' W 076°16'0 0.0
2018-Jun-22 17:00N 36°50' W 076°16'0 0.0
2018-Jun-22 16:30N 36°50' W 076°16'0 0.0
2018-Jun-22 15:47N 36°50' W 076°16'0 0.0
2018-Jun-22 15:30N 36°50' W 076°16'0 0.0
2018-Jun-22 14:54N 36°50' W 076°16'0 0.0
2018-Jun-22 14:30N 36°50' W 076°16'0 0.0
2018-Jun-22 14:00N 36°50' W 076°16'0 0.0
2018-Jun-22 13:30N 36°50' W 076°16'0 0.0
2018-Jun-22 13:00N 36°50' W 076°16'0 0.0
2018-Jun-22 12:30N 36°50' W 076°16'0 0.0
2018-Jun-22 12:00N 36°50' W 076°16'0 0.0
2018-Jun-22 11:30N 36°50' W 076°16'0 0.0
2018-Jun-22 11:00N 36°50' W 076°16'0 0.0
2018-Jun-22 10:30N 36°50' W 076°16'0 0.0
2018-Jun-22 10:00N 36°50' W 076°16'0 0.0
2018-Jun-22 09:30N 36°50' W 076°16'0 0.0
2018-Jun-22 09:00N 36°50' W 076°16'0 0.0
2018-Jun-22 08:28N 36°50' W 076°16'0 0.0
2018-Jun-22 08:00N 36°50' W 076°16'0 0.0
2018-Jun-22 07:30N 36°50' W 076°16'0 0.0
2018-Jun-22 07:00N 36°50' W 076°16'0 0.0
2018-Jun-22 06:30N 36°50' W 076°16'0 0.3
2018-Jun-22 06:00N 36°50' W 076°16'0 0.1
2018-Jun-22 05:30N 36°50' W 076°17'3 5.8
2018-Jun-22 04:58N 36°52' W 076°20'1 0.7
2018-Jun-22 04:01N 36°53' W 076°20'0 0.9
2018-Jun-22 04:00N 36°53' W 076°20'0 0.2
2018-Jun-22 03:31N 36°53' W 076°20'0 0.2
2018-Jun-22 02:52N 36°53' W 076°20'0 0.2
2018-Jun-22 02:14N 36°53' W 076°20'0 0.5
2018-Jun-22 01:55N 36°53' W 076°20'3 6.1
2018-Jun-22 01:28N 36°56' W 076°20'0 0.5
2018-Jun-22 00:55N 36°56' W 076°20'3 0.6
2018-Jun-21 20:01N 36°53' W 076°20'0 8.0
2018-Jun-21 20:00N 36°53' W 076°20'4 7.4
2018-Jun-21 19:30N 36°50' W 076°16'0 0.3
2018-Jun-21 19:00N 36°50' W 076°16'0 0.0
2018-Jun-21 18:30N 36°50' W 076°16'0 0.0
2018-Jun-21 18:00N 36°50' W 076°16'0 0.0
2018-Jun-21 17:30N 36°50' W 076°16'0 0.0
2018-Jun-21 17:00N 36°50' W 076°16'0 0.0
2018-Jun-21 16:30N 36°50' W 076°16'0 0.0
2018-Jun-21 16:00N 36°50' W 076°16'0 0.0
2018-Jun-21 15:30N 36°50' W 076°16'0 0.0
2018-Jun-21 15:00N 36°50' W 076°16'0 0.0
2018-Jun-21 14:30N 36°50' W 076°16'0 0.4
2018-Jun-21 13:55N 36°50' W 076°17'3 7.0
2018-Jun-21 13:28N 36°52' W 076°20'1 0.7
2018-Jun-21 12:46N 36°53' W 076°20'1 1.6
2018-Jun-21 12:26N 36°53' W 076°20'0 0.3
2018-Jun-21 11:54N 36°53' W 076°20'1 1.4
2018-Jun-21 11:30N 36°53' W 076°20'0 0.0
2018-Jun-21 11:00N 36°53' W 076°20'0 0.0
2018-Jun-21 10:30N 36°53' W 076°20'1 1.8
2018-Jun-21 10:00N 36°53' W 076°21'1 0.9
2018-Jun-21 09:04N 36°53' W 076°20'2 5.3
2018-Jun-21 08:43N 36°55' W 076°20'1 0.1
2018-Jun-21 01:20N 36°56' W 076°20'0 0.3
2018-Jun-21 01:00N 36°55' W 076°20'1 0.2
2018-Jun-20 21:38N 36°55' W 076°20'0 0.3
2018-Jun-20 21:29N 36°55' W 076°20'0 0.8
2018-Jun-20 20:59N 36°55' W 076°20'1 1.3
2018-Jun-20 20:19N 36°56' W 076°20'0 0.1
2018-Jun-20 16:18N 36°56' W 076°20'0 0.0
2018-Jun-20 16:00N 36°56' W 076°20'3 2.8
2018-Jun-20 15:01N 36°53' W 076°20'0 5.2
2018-Jun-20 15:01N 36°53' W 076°20'0 0.0
2018-Jun-20 14:30N 36°53' W 076°20'0 0.0
2018-Jun-20 14:00N 36°53' W 076°20'0 0.0
2018-Jun-20 13:30N 36°53' W 076°20'0 0.0
2018-Jun-20 13:00N 36°53' W 076°20'0 0.0
2018-Jun-20 12:30N 36°53' W 076°20'0 0.0
2018-Jun-20 11:59N 36°53' W 076°20'0 0.0
2018-Jun-20 11:29N 36°53' W 076°20'4 4.8
2018-Jun-20 10:34N 36°57' W 076°20'3 9.2
2018-Jun-20 10:14N 36°54' W 076°20'2 5.4
2018-Jun-20 09:55N 36°52' W 076°21'0 0.1
2018-Jun-20 09:10N 36°53' W 076°21'1 4.9
2018-Jun-20 09:01N 36°53' W 076°20'2 2.4
2018-Jun-20 08:23N 36°51' W 076°19'0 0.0
2018-Jun-20 07:49N 36°51' W 076°19'0 0.0
2018-Jun-20 07:26N 36°51' W 076°19'0 0.0
2018-Jun-20 07:00N 36°51' W 076°19'0 0.0
2018-Jun-20 06:24N 36°51' W 076°19'0 0.0
2018-Jun-20 06:00N 36°51' W 076°19'0 0.0
2018-Jun-20 05:21N 36°51' W 076°19'0 0.0
2018-Jun-20 04:53N 36°51' W 076°19'0 0.0
2018-Jun-20 03:51N 36°51' W 076°19'0 0.0
2018-Jun-20 03:26N 36°51' W 076°19'0 0.0
2018-Jun-20 02:54N 36°51' W 076°19'0 0.0
2018-Jun-20 02:28N 36°51' W 076°19'0 0.0
2018-Jun-20 01:52N 36°51' W 076°19'0 0.0
2018-Jun-20 01:28N 36°51' W 076°19'0 0.0
2018-Jun-20 01:00N 36°51' W 076°19'0 0.0
2018-Jun-20 00:29N 36°51' W 076°19'0 0.0
2018-Jun-20 00:00N 36°51' W 076°19'0 0.0
2018-Jun-19 23:30N 36°51' W 076°19'0 0.0
2018-Jun-19 23:00N 36°51' W 076°19'0 0.0
2018-Jun-19 22:29N 36°51' W 076°19'0 0.0
2018-Jun-19 22:00N 36°51' W 076°19'0 0.0
2018-Jun-19 21:29N 36°51' W 076°19'0 0.0
2018-Jun-19 21:00N 36°51' W 076°19'0 0.0
2018-Jun-19 20:30N 36°51' W 076°19'1 0.9
2018-Jun-19 19:48N 36°51' W 076°20'0 0.0
2018-Jun-19 19:24N 36°51' W 076°20'1 3.4
2018-Jun-19 19:00N 36°53' W 076°20'0 0.0
2018-Jun-19 18:21N 36°53' W 076°20'0 0.0
2018-Jun-19 18:00N 36°53' W 076°20'0 0.0
2018-Jun-19 17:28N 36°53' W 076°20'0 0.1
2018-Jun-19 15:57N 36°53' W 076°20'0 0.1
2018-Jun-19 15:07N 36°53' W 076°20'0 0.0
2018-Jun-19 14:54N 36°53' W 076°20'0 0.2
2018-Jun-19 14:26N 36°53' W 076°20'0 0.0
2018-Jun-19 13:41N 36°53' W 076°20'0 0.3
2018-Jun-19 13:23N 36°53' W 076°20'0 0.0
2018-Jun-19 13:00N 36°53' W 076°20'0 0.0
2018-Jun-19 12:30N 36°53' W 076°20'0 0.0
2018-Jun-19 12:00N 36°53' W 076°20'0 0.0
2018-Jun-19 11:30N 36°53' W 076°20'3 4.0
2018-Jun-19 10:46N 36°56' W 076°20'0 1.4
2018-Jun-19 10:28N 36°55' W 076°20'0 0.1
2018-Jun-19 09:57N 36°55' W 076°20'2 3.3
2018-Jun-19 09:16N 36°53' W 076°20'0 0.1
2018-Jun-19 06:24N 36°53' W 076°20'0 0.0
2018-Jun-19 05:59N 36°53' W 076°20'0 0.0
2018-Jun-19 05:05N 36°53' W 076°20'0 0.0
2018-Jun-19 05:00N 36°53' W 076°20'0 0.0
2018-Jun-19 00:30N 36°53' W 076°20'0 0.0
2018-Jun-18 23:17N 36°53' W 076°20'0 0.0
2018-Jun-18 23:00N 36°53' W 076°20'1 1.4
2018-Jun-18 22:05N 36°51' W 076°20'0 2.1
2018-Jun-18 21:57N 36°52' W 076°19'2 1.7
2018-Jun-18 20:59N 36°53' W 076°21'0 0.5
2018-Jun-18 20:26N 36°53' W 076°21'1 0.4
2018-Jun-18 18:30N 36°53' W 076°20'0 0.1
2018-Jun-18 17:46N 36°53' W 076°20'2 6.6
2018-Jun-18 17:30N 36°51' W 076°19'2 4.1
2018-Jun-18 17:00N 36°50' W 076°16'0 0.0
2018-Jun-18 16:30N 36°50' W 076°16'0 0.0
2018-Jun-18 16:00N 36°50' W 076°16'0 0.0
2018-Jun-18 15:30N 36°50' W 076°16'0 0.0
2018-Jun-18 15:00N 36°50' W 076°16'0 0.2
2018-Jun-18 14:30N 36°50' W 076°16'3 0.8
2018-Jun-18 11:00N 36°52' W 076°19'0 0.4
2018-Jun-18 10:29N 36°51' W 076°19'2 2.9
2018-Jun-18 09:58N 36°52' W 076°21'1 1.1
2018-Jun-18 09:29N 36°53' W 076°20'1 0.2
2018-Jun-18 06:59N 36°53' W 076°20'0 0.6
2018-Jun-18 06:18N 36°53' W 076°20'0 0.0
2018-Jun-18 06:00N 36°53' W 076°20'0 0.0
2018-Jun-18 05:29N 36°53' W 076°20'0 0.0
2018-Jun-18 05:00N 36°53' W 076°20'0 0.2
2018-Jun-18 04:30N 36°53' W 076°20'0 0.0
2018-Jun-18 03:55N 36°53' W 076°20'0 0.3
2018-Jun-18 03:23N 36°53' W 076°20'0 0.5
2018-Jun-18 03:00N 36°53' W 076°20'0 0.1
2018-Jun-18 02:30N 36°53' W 076°20'0 0.0
2018-Jun-18 02:00N 36°53' W 076°20'3 6.8
2018-Jun-18 01:30N 36°50' W 076°17'0 0.3
2018-Jun-18 00:42N 36°50' W 076°16'0 0.0
2018-Jun-17 23:34N 36°50' W 076°16'0 0.0
2018-Jun-17 23:13N 36°50' W 076°16'0 0.0
2018-Jun-17 21:48N 36°50' W 076°16'1 4.9
2018-Jun-17 21:30N 36°49' W 076°17'3 5.4
2018-Jun-17 21:00N 36°47' W 076°18'1 1.2
2018-Jun-17 20:30N 36°47' W 076°18'4 7.1
2018-Jun-17 20:00N 36°50' W 076°16'0 0.3
2018-Jun-17 19:30N 36°50' W 076°16'0 0.0
2018-Jun-17 19:00N 36°50' W 076°16'0 0.0
2018-Jun-17 18:30N 36°50' W 076°16'0 0.0
2018-Jun-17 18:00N 36°50' W 076°16'0 0.0
2018-Jun-17 17:30N 36°50' W 076°16'0 0.0
2018-Jun-17 16:56N 36°50' W 076°16'0 0.0
2018-Jun-17 16:29N 36°50' W 076°16'0 0.0
2018-Jun-17 15:57N 36°50' W 076°16'0 0.0
2018-Jun-17 15:30N 36°50' W 076°16'0 0.0
2018-Jun-17 15:00N 36°50' W 076°16'0 0.0
2018-Jun-17 14:30N 36°50' W 076°16'0 0.0
2018-Jun-17 14:00N 36°50' W 076°16'0 0.0
2018-Jun-17 13:30N 36°50' W 076°16'0 0.0
2018-Jun-17 13:00N 36°50' W 076°16'0 0.0
2018-Jun-17 12:30N 36°50' W 076°16'0 0.0
2018-Jun-17 12:00N 36°50' W 076°16'0 0.0
2018-Jun-17 11:30N 36°50' W 076°16'0 0.0
2018-Jun-17 11:00N 36°50' W 076°16'0 0.0
2018-Jun-17 10:30N 36°50' W 076°16'0 0.0
2018-Jun-17 10:00N 36°50' W 076°16'5 7.5
2018-Jun-17 09:17N 36°55' W 076°20'0 0.1
2018-Jun-17 01:54N 36°55' W 076°20'1 0.7
2018-Jun-17 00:47N 36°56' W 076°20'3 2.0
2018-Jun-16 23:26N 36°53' W 076°20'0 0.3
2018-Jun-16 22:42N 36°53' W 076°20'0 0.9
2018-Jun-16 22:29N 36°53' W 076°20'0 0.1
2018-Jun-16 21:43N 36°53' W 076°20'0 0.6
2018-Jun-16 21:30N 36°53' W 076°20'0 0.0
2018-Jun-16 21:00N 36°53' W 076°20'0 0.0
2018-Jun-16 20:13N 36°53' W 076°20'0 0.0
2018-Jun-16 19:59N 36°53' W 076°20'0 0.0
2018-Jun-16 19:27N 36°53' W 076°20'0 0.1
2018-Jun-16 18:26N 36°53' W 076°20'2 5.2
2018-Jun-16 17:59N 36°51' W 076°18'1 2.9
2018-Jun-16 17:28N 36°50' W 076°16'0 0.0
2018-Jun-16 16:59N 36°50' W 076°16'0 0.0
2018-Jun-16 16:30N 36°50' W 076°16'0 0.0
2018-Jun-16 16:00N 36°50' W 076°16'0 0.0
2018-Jun-16 15:30N 36°50' W 076°16'0 0.0
2018-Jun-16 15:00N 36°50' W 076°16'0 0.0
2018-Jun-16 14:30N 36°50' W 076°16'0 0.0
2018-Jun-16 14:00N 36°50' W 076°16'0 0.0
2018-Jun-16 13:30N 36°50' W 076°16'0 0.0
2018-Jun-16 13:00N 36°50' W 076°16'0 0.0
2018-Jun-16 12:30N 36°50' W 076°16'0 0.5
2018-Jun-16 12:00N 36°50' W 076°17'3 5.8
2018-Jun-16 11:27N 36°52' W 076°20'5 8.8
2018-Jun-16 10:55N 36°57' W 076°20'1 0.6
2018-Jun-16 08:45N 36°58' W 076°22'4 8.6
2018-Jun-16 08:18N 36°54' W 076°20'2 1.9
2018-Jun-16 07:01N 36°51' W 076°19'0 0.0
2018-Jun-16 06:53N 36°51' W 076°19'0 0.0
2018-Jun-16 06:30N 36°51' W 076°19'0 0.0
2018-Jun-16 05:59N 36°51' W 076°19'0 0.0
2018-Jun-16 05:30N 36°51' W 076°19'0 0.0
2018-Jun-16 05:00N 36°51' W 076°19'0 0.0
2018-Jun-16 04:29N 36°51' W 076°19'0 0.0
2018-Jun-16 03:56N 36°51' W 076°19'0 0.0
2018-Jun-16 02:58N 36°51' W 076°19'1 1.9
2018-Jun-16 02:30N 36°51' W 076°18'3 5.4
2018-Jun-16 02:00N 36°48' W 076°17'2 3.5
2018-Jun-16 01:30N 36°47' W 076°18'0 0.8
2018-Jun-16 01:00N 36°47' W 076°18'1 2.5
2018-Jun-16 00:30N 36°48' W 076°18'2 4.6
2018-Jun-16 00:00N 36°50' W 076°18'3 5.9
2018-Jun-15 23:28N 36°53' W 076°20'0 0.0
2018-Jun-15 23:00N 36°53' W 076°20'0 0.0
2018-Jun-15 22:30N 36°53' W 076°20'0 0.0
2018-Jun-15 22:00N 36°53' W 076°20'0 0.0
2018-Jun-15 21:09N 36°53' W 076°20'0 0.0
2018-Jun-15 20:00N 36°53' W 076°20'0 0.1
2018-Jun-15 19:31N 36°53' W 076°20'0 0.3
2018-Jun-15 17:59N 36°53' W 076°20'1 0.8
2018-Jun-15 17:11N 36°53' W 076°20'1 2.6
2018-Jun-15 16:59N 36°52' W 076°21'0 0.1
2018-Jun-15 15:33N 36°52' W 076°21'0 7.3
2018-Jun-15 15:30N 36°53' W 076°21'1 1.2
2018-Jun-15 14:28N 36°52' W 076°19'1 1.9
2018-Jun-15 13:54N 36°53' W 076°20'0 0.1
2018-Jun-15 13:14N 36°53' W 076°20'0 0.0
2018-Jun-15 13:00N 36°53' W 076°20'0 0.0
2018-Jun-15 12:28N 36°53' W 076°20'0 0.0
2018-Jun-15 11:55N 36°53' W 076°20'0 0.0
2018-Jun-15 11:29N 36°53' W 076°20'0 0.0
2018-Jun-15 10:59N 36°53' W 076°20'0 0.0
2018-Jun-15 10:26N 36°53' W 076°20'0 0.0
2018-Jun-15 10:00N 36°53' W 076°20'0 0.0
2018-Jun-15 08:29N 36°53' W 076°20'0 0.0
2018-Jun-15 07:49N 36°53' W 076°20'0 0.0
2018-Jun-15 07:30N 36°53' W 076°20'0 0.0
2018-Jun-15 06:59N 36°53' W 076°20'0 0.0
2018-Jun-15 06:31N 36°53' W 076°20'0 0.3
2018-Jun-15 06:00N 36°53' W 076°20'0 0.3
2018-Jun-15 05:21N 36°53' W 076°20'0 0.7
2018-Jun-15 05:00N 36°53' W 076°20'0 0.2
2018-Jun-15 03:47N 36°53' W 076°20'0 0.3
2018-Jun-15 03:29N 36°53' W 076°20'0 0.3
2018-Jun-15 03:00N 36°53' W 076°20'3 1.9
2018-Jun-15 01:26N 36°56' W 076°20'1 0.9
2018-Jun-15 00:18N 36°55' W 076°20'0 0.4
2018-Jun-14 23:35N 36°55' W 076°20'2 6.1
2018-Jun-14 23:14N 36°53' W 076°20'2 7.3
2018-Jun-14 23:00N 36°51' W 076°19'2 4.0
2018-Jun-14 22:27N 36°50' W 076°16'0 0.0
2018-Jun-14 22:00N 36°50' W 076°16'0 0.0
2018-Jun-14 21:30N 36°50' W 076°16'0 0.0
2018-Jun-14 21:00N 36°50' W 076°16'0 0.0
2018-Jun-14 20:30N 36°50' W 076°16'0 0.0
2018-Jun-14 20:00N 36°50' W 076°16'0 0.0
2018-Jun-14 19:30N 36°50' W 076°16'0 0.0
2018-Jun-14 19:00N 36°50' W 076°16'0 0.0
2018-Jun-14 18:30N 36°50' W 076°16'0 0.0
2018-Jun-14 18:00N 36°50' W 076°16'0 0.0
2018-Jun-14 17:30N 36°50' W 076°16'0 0.0
2018-Jun-14 17:00N 36°50' W 076°16'0 0.0
2018-Jun-14 16:30N 36°50' W 076°16'0 0.0
2018-Jun-14 16:00N 36°50' W 076°16'0 0.0
2018-Jun-14 15:30N 36°50' W 076°16'3 6.5
2018-Jun-14 14:59N 36°52' W 076°20'1 1.1
2018-Jun-14 14:29N 36°53' W 076°20'0 0.1
2018-Jun-14 13:58N 36°53' W 076°20'2 3.7
2018-Jun-14 13:30N 36°51' W 076°19'2 4.1
2018-Jun-14 13:00N 36°50' W 076°16'  

Dump ship's entire track history